Time;durP1;ratioP1;P1;durP2;ratioP2;P2;SDS_P1;SDS_P2;PMS_P1;PMS_P2;Temp;Humidity;BMP_temperature;BMP_pressure;BME280_temperature;BME280_humidity;BME280_pressure;Samples;Min_cycle;Max_cycle;Signal;HPM_P1;HPM_P2
2023/05/03 00:01:23;;;;;;;12.70;12.10;;;13.30;29.30;;;;;;5066873;28;20605;-62
2023/05/03 00:03:52;;;;;;;12.37;11.67;;;13.30;29.30;;;;;;5067690;28;20620;-62
2023/05/03 00:06:18;;;;;;;12.40;11.70;;;13.30;29.30;;;;;;5065410;28;20186;-62
2023/05/03 00:08:44;;;;;;;13.07;12.17;;;13.40;29.30;;;;;;5065605;28;20982;-60
2023/05/03 00:11:10;;;;;;;11.90;11.20;;;13.40;29.10;;;;;;5082876;28;20425;-62
2023/05/03 00:13:36;;;;;;;12.03;11.43;;;13.40;29.20;;;;;;5067996;28;20228;-62
2023/05/03 00:16:02;;;;;;;11.97;11.17;;;13.50;29.10;;;;;;5084150;28;20217;-62
2023/05/03 00:18:29;;;;;;;13.07;12.27;;;13.50;29.20;;;;;;5066238;28;20409;-61
2023/05/03 00:20:55;;;;;;;12.23;11.50;;;13.40;29.30;;;;;;5066256;28;20424;-62
2023/05/03 00:23:22;;;;;;;12.23;11.53;;;13.40;29.20;;;;;;5065117;28;20441;-62
2023/05/03 00:25:55;;;;;;;11.33;10.80;;;13.30;29.40;;;;;;5064909;28;20494;-61
2023/05/03 00:28:21;;;;;;;11.97;11.37;;;13.30;29.50;;;;;;5063607;28;20417;-61
2023/05/03 00:30:47;;;;;;;13.30;12.70;;;13.30;29.60;;;;;;5066521;28;20494;-61
2023/05/03 00:33:13;;;;;;;12.63;11.93;;;13.20;29.70;;;;;;5066341;28;20421;-62
2023/05/03 00:35:39;;;;;;;11.57;10.97;;;13.20;29.80;;;;;;5066145;28;20575;-61
2023/05/03 00:38:05;;;;;;;13.20;12.50;;;13.20;29.90;;;;;;5064845;28;20500;-62
2023/05/03 00:40:31;;;;;;;11.70;11.10;;;13.10;29.80;;;;;;5065309;28;20174;-62
2023/05/03 00:42:56;;;;;;;13.03;12.33;;;13.20;30.00;;;;;;5063607;28;20544;-63
2023/05/03 00:45:22;;;;;;;11.30;10.80;;;13.10;30.00;;;;;;5062354;28;20637;-62
2023/05/03 00:47:48;;;;;;;12.47;11.70;;;13.00;30.30;;;;;;5062155;28;20182;-62
2023/05/03 00:50:14;;;;;;;12.20;11.60;;;13.00;30.50;;;;;;5063570;28;20422;-62
2023/05/03 00:52:40;;;;;;;12.57;11.97;;;13.00;30.40;;;;;;5064207;28;20178;-62
2023/05/03 00:55:07;;;;;;;13.33;12.63;;;13.00;30.50;;;;;;5062618;28;20578;-62
2023/05/03 00:57:33;;;;;;;12.50;11.60;;;13.00;30.60;;;;;;5062454;28;20444;-61
2023/05/03 00:59:58;;;;;;;13.07;12.27;;;13.00;30.50;;;;;;5064217;28;20470;-62
2023/05/03 01:02:25;;;;;;;12.40;11.80;;;13.10;30.50;;;;;;5059864;28;20541;-61
2023/05/03 01:04:52;;;;;;;13.23;12.30;;;13.10;30.30;;;;;;5062755;28;20178;-62
2023/05/03 01:07:26;;;;;;;12.23;11.47;;;13.10;30.30;;;;;;5062690;28;20420;-62
2023/05/03 01:09:59;;;;;;;12.90;12.20;;;13.10;30.10;;;;;;5063818;28;20523;-61
2023/05/03 01:12:56;;;;;;;13.10;12.30;;;13.10;30.00;;;;;;5062577;28;20412;-62
2023/05/03 01:15:38;;;;;;;12.73;11.93;;;13.00;30.10;;;;;;5060786;28;20468;-62
2023/05/03 01:18:11;;;;;;;13.20;12.50;;;13.00;30.30;;;;;;5067122;28;20416;-61
2023/05/03 01:20:37;;;;;;;13.37;12.37;;;13.00;30.30;;;;;;5068809;28;20420;-61
2023/05/03 01:23:17;;;;;;;13.50;12.80;;;13.10;30.40;;;;;;5068694;28;20542;-62
2023/05/03 01:25:42;;;;;;;12.60;12.00;;;13.10;30.30;;;;;;5067644;28;20434;-61
2023/05/03 01:28:08;;;;;;;13.87;13.07;;;13.20;30.10;;;;;;5068379;28;20511;-61
2023/05/03 01:30:36;;;;;;;12.33;11.73;;;13.10;30.00;;;;;;5067976;28;20179;-61
2023/05/03 01:33:35;;;;;;;12.00;11.40;;;13.10;30.00;;;;;;5066880;28;20542;-61
2023/05/03 01:36:05;;;;;;;12.40;11.80;;;13.00;30.10;;;;;;5068417;28;20460;-62
2023/05/03 01:38:35;;;;;;;13.47;12.77;;;13.00;30.50;;;;;;5069476;28;20954;-62
2023/05/03 01:41:07;;;;;;;13.80;13.00;;;13.10;30.40;;;;;;5066094;28;20445;-62
2023/05/03 01:43:34;;;;;;;12.97;12.27;;;13.10;30.10;;;;;;5067995;28;20477;-62
2023/05/03 01:45:59;;;;;;;12.90;12.20;;;13.10;30.10;;;;;;5068006;28;20426;-53
2023/05/03 01:48:25;;;;;;;13.10;12.33;;;13.20;30.00;;;;;;5065979;28;20420;-55
2023/05/03 01:50:51;;;;;;;14.30;13.60;;;13.20;29.90;;;;;;5068774;28;20183;-52
2023/05/03 01:53:16;;;;;;;13.70;12.90;;;13.10;30.00;;;;;;5085576;28;20210;-54
2023/05/03 01:55:42;;;;;;;13.77;12.97;;;13.10;29.70;;;;;;5067192;28;20217;-55
2023/05/03 01:58:08;;;;;;;13.70;12.90;;;13.00;30.20;;;;;;5067306;28;20213;-53
2023/05/03 02:00:33;;;;;;;13.80;13.10;;;12.60;31.20;;;;;;5065228;28;20270;-61
2023/05/03 02:02:59;;;;;;;15.30;14.40;;;12.40;32.40;;;;;;5068051;28;20514;-62
2023/05/03 02:05:25;;;;;;;13.60;12.70;;;12.50;32.30;;;;;;5067871;28;20179;-62
2023/05/03 02:07:50;;;;;;;12.90;12.30;;;12.60;31.70;;;;;;5066975;28;20186;-62
2023/05/03 02:10:16;;;;;;;13.40;12.50;;;12.70;31.30;;;;;;5067824;28;20573;-62
2023/05/03 02:12:43;;;;;;;12.60;11.93;;;12.80;31.20;;;;;;5065406;28;20190;-61
2023/05/03 02:15:10;;;;;;;14.63;13.63;;;12.80;30.60;;;;;;5065661;28;20202;-62
2023/05/03 02:17:36;;;;;;;14.17;13.47;;;12.60;31.70;;;;;;5085769;28;20503;-62
2023/05/03 02:20:04;;;;;;;12.90;12.30;;;12.70;31.60;;;;;;5064359;28;20957;-61
2023/05/03 02:22:31;;;;;;;12.80;12.20;;;12.80;31.20;;;;;;5067352;28;20416;-61
2023/05/03 02:24:57;;;;;;;15.40;14.30;;;12.90;30.60;;;;;;5067313;28;20408;-62
2023/05/03 02:27:23;;;;;;;13.97;13.17;;;12.80;30.80;;;;;;5049838;28;20417;-62
2023/05/03 02:29:49;;;;;;;14.10;13.30;;;12.70;31.50;;;;;;5062665;28;20428;-62
2023/05/03 02:32:14;;;;;;;12.97;12.37;;;12.80;31.10;;;;;;5063331;28;20416;-62
2023/05/03 02:34:40;;;;;;;14.63;13.83;;;12.70;31.40;;;;;;5061718;28;20184;-62
2023/05/03 02:37:06;;;;;;;14.10;13.30;;;12.70;31.70;;;;;;5063239;28;20526;-62
2023/05/03 02:39:32;;;;;;;14.33;13.53;;;12.70;31.10;;;;;;5061260;28;20706;-62
2023/05/03 02:41:57;;;;;;;14.20;13.40;;;12.70;31.20;;;;;;5059771;28;20704;-61
2023/05/03 02:44:23;;;;;;;14.03;13.23;;;12.70;31.10;;;;;;5063867;28;20232;-62
2023/05/03 02:46:49;;;;;;;14.07;13.27;;;12.70;30.90;;;;;;5062129;28;20643;-54
2023/05/03 02:49:14;;;;;;;13.37;12.57;;;12.50;31.80;;;;;;5081203;28;20175;-53
2023/05/03 02:51:40;;;;;;;14.20;13.40;;;12.60;31.60;;;;;;5062157;28;20193;-54
2023/05/03 02:54:05;;;;;;;14.00;13.30;;;12.70;31.30;;;;;;5063370;28;20274;-54
2023/05/03 02:56:32;;;;;;;14.23;13.53;;;12.70;31.20;;;;;;5064331;28;20217;-53
2023/05/03 02:58:58;;;;;;;14.57;13.77;;;12.70;31.10;;;;;;5063386;28;20182;-52
2023/05/03 03:01:23;;;;;;;14.70;13.90;;;12.80;31.10;;;;;;5064533;28;20481;-55
2023/05/03 03:03:49;;;;;;;14.97;14.07;;;12.70;30.90;;;;;;5047026;28;20196;-53
2023/05/03 03:06:14;;;;;;;15.43;14.47;;;12.70;30.90;;;;;;5064885;28;20186;-54
2023/05/03 03:08:40;;;;;;;15.53;14.63;;;12.70;31.20;;;;;;5061991;28;20552;-55
2023/05/03 03:11:06;;;;;;;15.67;14.67;;;12.70;30.90;;;;;;5063221;28;20289;-55
2023/05/03 03:13:32;;;;;;;16.30;15.30;;;12.70;30.90;;;;;;5062641;28;20210;-54
2023/05/03 03:15:57;;;;;;;15.50;14.40;;;12.70;30.90;;;;;;5061717;28;20468;-55
2023/05/03 03:18:23;;;;;;;15.80;15.00;;;12.50;31.10;;;;;;5063987;28;20178;-54
2023/05/03 03:20:49;;;;;;;15.90;14.93;;;12.20;33.40;;;;;;5063583;28;20550;-53
2023/05/03 03:23:14;;;;;;;15.63;14.63;;;12.30;33.10;;;;;;5061512;28;20538;-51
2023/05/03 03:25:43;;;;;;;15.70;14.63;;;12.30;32.40;;;;;;5063431;28;20197;-53
2023/05/03 03:28:09;;;;;;;17.13;16.03;;;12.30;32.10;;;;;;5062273;28;20558;-53
2023/05/03 03:30:34;;;;;;;15.40;14.50;;;12.40;32.20;;;;;;5063591;28;20429;-54
2023/05/03 03:33:00;;;;;;;15.80;15.10;;;12.40;31.80;;;;;;5061895;28;20255;-54
2023/05/03 03:35:26;;;;;;;15.30;14.43;;;12.50;31.70;;;;;;5064066;28;20217;-54
2023/05/03 03:37:52;;;;;;;16.50;15.60;;;12.50;31.50;;;;;;5063840;28;20787;-54
2023/05/03 03:40:18;;;;;;;14.50;13.80;;;12.40;31.80;;;;;;5064322;28;20891;-53
2023/05/03 03:42:43;;;;;;;16.80;15.90;;;12.40;31.80;;;;;;5065288;28;20503;-54
2023/05/03 03:45:09;;;;;;;16.70;15.70;;;12.40;31.40;;;;;;5062573;28;20273;-51
2023/05/03 03:47:35;;;;;;;16.77;15.50;;;12.30;32.70;;;;;;5068884;28;20214;-54
2023/05/03 03:50:01;;;;;;;16.37;15.50;;;12.30;32.20;;;;;;5067946;28;20463;-54
2023/05/03 03:52:27;;;;;;;17.23;16.20;;;12.20;31.90;;;;;;5067684;28;20232;-53
2023/05/03 03:54:53;;;;;;;18.33;17.30;;;12.10;33.40;;;;;;5067082;28;20213;-52
2023/05/03 03:57:18;;;;;;;17.03;15.83;;;12.10;33.10;;;;;;5068833;28;20444;-50
2023/05/03 03:59:44;;;;;;;17.33;16.40;;;12.10;33.00;;;;;;5073661;28;20359;-51
2023/05/03 04:02:10;;;;;;;15.20;14.30;;;12.20;32.70;;;;;;5069952;28;20642;-53
2023/05/03 04:04:35;;;;;;;17.53;16.33;;;12.20;32.40;;;;;;5072224;28;20213;-52
2023/05/03 04:07:01;;;;;;;15.93;14.70;;;12.20;32.20;;;;;;5070393;28;20179;-52
2023/05/03 04:09:27;;;;;;;16.00;14.90;;;12.20;32.30;;;;;;5072183;28;20190;-51
2023/05/03 04:11:53;;;;;;;16.20;15.27;;;12.20;32.20;;;;;;5072129;28;20416;-51
2023/05/03 04:14:19;;;;;;;16.70;15.80;;;12.20;32.00;;;;;;5072792;28;20178;-54
2023/05/03 04:16:44;;;;;;;16.90;15.77;;;11.90;33.10;;;;;;5074247;28;20868;-55
2023/05/03 04:19:10;;;;;;;16.00;14.97;;;11.90;33.10;;;;;;5072912;28;20263;-53
2023/05/03 04:21:36;;;;;;;16.13;15.10;;;11.90;33.10;;;;;;5073037;28;20230;-54
2023/05/03 04:24:05;;;;;;;17.67;16.57;;;11.80;33.10;;;;;;5074376;28;20220;-54
2023/05/03 04:26:31;;;;;;;17.60;16.30;;;11.80;33.90;;;;;;5072898;28;20508;-49
2023/05/03 04:28:57;;;;;;;15.80;14.87;;;11.80;33.70;;;;;;5072558;28;20466;-51
2023/05/03 04:31:24;;;;;;;15.43;14.53;;;11.70;33.00;;;;;;5070107;28;20840;-50
2023/05/03 04:33:49;;;;;;;17.07;15.77;;;11.60;34.30;;;;;;5074198;28;20413;-53
2023/05/03 04:36:15;;;;;;;17.73;16.63;;;11.60;34.20;;;;;;5073142;28;20797;-52
2023/05/03 04:38:42;;;;;;;15.60;14.70;;;11.60;34.00;;;;;;5072426;28;20175;-52
2023/05/03 04:41:08;;;;;;;15.93;14.93;;;11.70;34.30;;;;;;5072944;28;20193;-54
2023/05/03 04:43:35;;;;;;;16.40;15.43;;;11.80;33.80;;;;;;5072734;28;20451;-52
2023/05/03 04:46:02;;;;;;;17.50;16.30;;;11.80;34.10;;;;;;5072323;28;20421;-53
2023/05/03 04:48:28;;;;;;;17.10;16.10;;;11.90;33.40;;;;;;5091471;28;20762;-55
2023/05/03 04:50:54;;;;;;;16.70;15.70;;;11.90;33.40;;;;;;5072863;28;20443;-53
2023/05/03 04:53:19;;;;;;;15.37;14.33;;;11.90;33.10;;;;;;5071435;28;20425;-54
2023/05/03 04:55:46;;;;;;;17.23;15.87;;;12.00;33.10;;;;;;5072644;28;20209;-52
2023/05/03 04:58:12;;;;;;;17.67;16.47;;;11.80;33.10;;;;;;5071543;28;20232;-54
2023/05/03 05:00:40;;;;;;;17.57;16.27;;;11.70;34.60;;;;;;5071607;28;20421;-53
2023/05/03 05:03:06;;;;;;;16.83;15.90;;;11.70;34.00;;;;;;5072674;28;20754;-54
2023/05/03 05:05:32;;;;;;;16.93;15.83;;;11.90;33.80;;;;;;5070986;28;20443;-54
2023/05/03 05:07:58;;;;;;;16.70;15.67;;;11.90;33.20;;;;;;5071294;28;20512;-52
2023/05/03 05:10:24;;;;;;;17.30;16.30;;;12.00;33.20;;;;;;5072365;28;20441;-53
2023/05/03 05:12:50;;;;;;;17.87;16.73;;;12.00;33.20;;;;;;5071715;28;20182;-53
2023/05/03 05:15:16;;;;;;;18.47;17.27;;;12.00;33.20;;;;;;5072214;28;20467;-52
2023/05/03 05:17:41;;;;;;;18.87;17.53;;;12.10;33.40;;;;;;5072618;28;20486;-51
2023/05/03 05:20:11;;;;;;;19.07;17.87;;;12.10;33.40;;;;;;5073164;28;20273;-59
2023/05/03 05:22:37;;;;;;;17.27;16.13;;;12.10;33.00;;;;;;5073047;28;20194;-58
2023/05/03 05:25:04;;;;;;;18.87;17.47;;;12.20;33.00;;;;;;5072616;28;20978;-61
2023/05/03 05:27:30;;;;;;;18.50;17.20;;;12.10;32.70;;;;;;5071413;28;20424;-61
2023/05/03 05:29:55;;;;;;;19.00;17.77;;;12.10;32.70;;;;;;5071783;28;20802;-61
2023/05/03 05:32:21;;;;;;;17.23;16.13;;;12.10;32.80;;;;;;5072001;28;20257;-62
2023/05/03 05:34:51;;;;;;;18.57;17.37;;;12.20;33.40;;;;;;5073048;28;20174;-61
2023/05/03 05:37:17;;;;;;;19.63;18.13;;;12.20;33.00;;;;;;5073223;28;20232;-61
2023/05/03 05:39:44;;;;;;;17.43;16.40;;;12.20;33.00;;;;;;5073237;28;20420;-61
2023/05/03 05:42:09;;;;;;;18.27;17.27;;;12.20;32.70;;;;;;5072527;28;20413;-61
2023/05/03 05:44:35;;;;;;;18.87;17.57;;;12.20;32.50;;;;;;5074182;28;20411;-61
2023/05/03 05:47:01;;;;;;;18.53;17.20;;;12.20;32.80;;;;;;5074035;28;20179;-61
2023/05/03 05:49:26;;;;;;;18.70;17.53;;;12.10;33.00;;;;;;5073400;28;20179;-60
2023/05/03 05:51:52;;;;;;;18.20;17.00;;;12.00;33.50;;;;;;5073488;28;20697;-58
2023/05/03 05:54:17;;;;;;;17.73;16.60;;;12.10;34.20;;;;;;5073573;28;20281;-59
2023/05/03 05:56:43;;;;;;;19.70;18.40;;;12.10;34.00;;;;;;5073270;28;20582;-58
2023/05/03 05:59:09;;;;;;;20.80;19.50;;;12.10;34.80;;;;;;5073069;28;20183;-58
2023/05/03 06:01:35;;;;;;;19.10;17.67;;;11.90;36.10;;;;;;5070344;28;20174;-58
2023/05/03 06:04:01;;;;;;;19.23;17.63;;;11.70;35.90;;;;;;5072492;28;20765;-58
2023/05/03 06:06:27;;;;;;;19.57;18.13;;;11.60;37.10;;;;;;5075735;28;20178;-58
2023/05/03 06:08:52;;;;;;;18.87;17.73;;;11.70;36.50;;;;;;5075408;28;20182;-57
2023/05/03 06:11:18;;;;;;;19.00;17.90;;;11.90;35.70;;;;;;5075775;28;20840;-57
2023/05/03 06:13:44;;;;;;;19.47;18.10;;;11.90;34.30;;;;;;5076703;28;20182;-58
2023/05/03 06:16:10;;;;;;;17.67;16.10;;;12.00;35.90;;;;;;5076371;28;20202;-60
2023/05/03 06:18:36;;;;;;;18.80;17.53;;;11.80;34.70;;;;;;5077283;28;20221;-60
2023/05/03 06:21:01;;;;;;;18.57;17.47;;;11.80;35.50;;;;;;5076869;28;20445;-59
2023/05/03 06:23:27;;;;;;;18.27;16.97;;;12.00;35.10;;;;;;5076885;28;20714;-60
2023/05/03 06:25:53;;;;;;;17.63;16.53;;;12.00;35.00;;;;;;5077041;28;20239;-60
2023/05/03 06:28:18;;;;;;;19.17;17.90;;;12.10;35.10;;;;;;5077043;28;20223;-59
2023/05/03 06:30:48;;;;;;;21.00;19.23;;;12.20;34.30;;;;;;5076435;28;20311;-59
2023/05/03 06:33:14;;;;;;;20.30;18.70;;;12.10;34.20;;;;;;5076407;28;20178;-60
2023/05/03 06:35:40;;;;;;;19.13;17.60;;;12.20;33.90;;;;;;5076697;28;20452;-59
2023/05/03 06:38:06;;;;;;;17.00;16.00;;;12.20;33.90;;;;;;5075957;28;20175;-60
2023/05/03 06:40:32;;;;;;;19.50;18.10;;;12.20;33.80;;;;;;5076870;28;20728;-60
2023/05/03 06:42:57;;;;;;;19.83;18.57;;;12.20;34.10;;;;;;5076184;28;20417;-60
2023/05/03 06:45:24;;;;;;;18.57;17.27;;;12.30;34.00;;;;;;5076692;28;20517;-59
2023/05/03 06:47:50;;;;;;;19.50;18.20;;;12.40;33.60;;;;;;5076639;28;20201;-54
2023/05/03 06:50:15;;;;;;;19.77;18.47;;;12.50;33.20;;;;;;5075636;28;20416;-55
2023/05/03 06:52:41;;;;;;;21.23;19.97;;;12.50;33.70;;;;;;5075988;28;20586;-56
2023/05/03 06:55:07;;;;;;;19.00;17.70;;;12.40;33.60;;;;;;5075731;28;20178;-56
2023/05/03 06:57:33;;;;;;;21.87;20.27;;;12.20;34.10;;;;;;5094615;28;20181;-56
2023/05/03 06:59:58;;;;;;;21.50;19.90;;;12.20;34.70;;;;;;5075772;28;20413;-54
2023/05/03 07:02:25;;;;;;;19.83;18.63;;;12.20;34.60;;;;;;5075252;28;20181;-54
2023/05/03 07:04:51;;;;;;;21.20;19.80;;;12.20;34.40;;;;;;5074077;28;20208;-57
2023/05/03 07:07:17;;;;;;;19.97;18.47;;;12.20;34.50;;;;;;5074965;28;20425;-55
2023/05/03 07:09:43;;;;;;;22.17;19.50;;;12.30;34.70;;;;;;5075250;28;20278;-55
2023/05/03 07:12:09;;;;;;;19.80;18.60;;;12.50;33.70;;;;;;5074585;28;20843;-57
2023/05/03 07:14:35;;;;;;;20.27;18.73;;;12.50;34.50;;;;;;5074988;28;20174;-53
2023/05/03 07:17:01;;;;;;;20.27;18.93;;;12.50;34.10;;;;;;5071730;28;20982;-54
2023/05/03 07:19:26;;;;;;;19.73;18.53;;;12.30;34.30;;;;;;5075420;28;20228;-55
2023/05/03 07:21:52;;;;;;;19.63;18.20;;;12.30;35.00;;;;;;5074224;28;20185;-53
2023/05/03 07:24:17;;;;;;;19.67;18.30;;;12.50;34.30;;;;;;5057890;28;20523;-54
2023/05/03 07:26:43;;;;;;;22.13;20.63;;;12.70;33.90;;;;;;5092875;28;20623;-55
2023/05/03 07:29:09;;;;;;;20.20;19.00;;;12.80;34.00;;;;;;5074753;28;20179;-55
2023/05/03 07:31:35;;;;;;;20.30;19.07;;;12.90;33.20;;;;;;5074334;28;20183;-54
2023/05/03 07:34:01;;;;;;;22.47;20.93;;;13.00;33.20;;;;;;5074774;28;20322;-54
2023/05/03 07:36:27;;;;;;;21.10;19.57;;;12.90;33.10;;;;;;5074784;28;20543;-56
2023/05/03 07:38:52;;;;;;;20.50;19.10;;;12.90;33.00;;;;;;5074583;28;20652;-54
2023/05/03 07:41:18;;;;;;;19.70;18.40;;;12.80;34.00;;;;;;5074059;28;20856;-55
2023/05/03 07:43:44;;;;;;;19.63;18.27;;;12.90;34.10;;;;;;5074796;28;20202;-56
2023/05/03 07:46:10;;;;;;;19.70;18.40;;;13.00;33.50;;;;;;5074487;28;20182;-54
2023/05/03 07:48:35;;;;;;;19.07;17.83;;;13.10;33.00;;;;;;5074259;28;20181;-55
2023/05/03 07:51:03;;;;;;;20.10;18.63;;;13.10;33.50;;;;;;5074211;28;20178;-54
2023/05/03 07:53:29;;;;;;;19.63;18.43;;;13.10;33.20;;;;;;5074018;28;20179;-55
2023/05/03 07:55:54;;;;;;;18.50;17.40;;;13.10;33.10;;;;;;5074066;28;20456;-56
2023/05/03 07:58:20;;;;;;;20.10;18.57;;;13.20;33.10;;;;;;5074331;28;20278;-55
2023/05/03 08:00:46;;;;;;;19.83;18.43;;;13.30;33.00;;;;;;5074227;28;20171;-54
2023/05/03 08:03:11;;;;;;;20.63;18.90;;;13.20;33.10;;;;;;5073379;28;20190;-56
2023/05/03 08:05:37;;;;;;;19.93;18.60;;;13.20;32.90;;;;;;5074151;28;20182;-54
2023/05/03 08:08:04;;;;;;;19.77;18.53;;;13.20;33.00;;;;;;5073887;28;20688;-55
2023/05/03 08:10:30;;;;;;;21.57;20.00;;;13.30;33.10;;;;;;5073996;28;20542;-55
2023/05/03 08:12:56;;;;;;;19.30;18.20;;;13.40;32.30;;;;;;5073184;28;20424;-56
2023/05/03 08:15:22;;;;;;;19.80;18.40;;;13.50;32.30;;;;;;5073746;28;20453;-56
2023/05/03 08:17:48;;;;;;;19.20;17.90;;;13.60;32.20;;;;;;5073866;28;20182;-55
2023/05/03 08:20:15;;;;;;;19.77;18.57;;;13.80;31.70;;;;;;5073960;28;20174;-54
2023/05/03 08:22:41;;;;;;;18.13;17.13;;;13.80;31.20;;;;;;5073188;28;20501;-56
2023/05/03 08:25:07;;;;;;;18.30;17.20;;;13.80;31.30;;;;;;5057007;28;20447;-56
2023/05/03 08:27:33;;;;;;;19.37;18.07;;;14.00;31.10;;;;;;5073189;28;20465;-54
2023/05/03 08:30:01;;;;;;;19.30;18.10;;;14.00;30.60;;;;;;5073607;28;20416;-54
2023/05/03 08:32:29;;;;;;;19.20;17.83;;;14.00;30.80;;;;;;5073020;28;20409;-55
2023/05/03 08:34:55;;;;;;;19.33;18.13;;;14.00;30.50;;;;;;5073183;28;20416;-56
2023/05/03 08:37:21;;;;;;;18.47;17.47;;;14.10;30.50;;;;;;5073605;28;20420;-56
2023/05/03 08:39:47;;;;;;;19.93;18.63;;;14.10;30.20;;;;;;5073298;28;20413;-54
2023/05/03 08:42:13;;;;;;;18.30;17.10;;;14.10;30.20;;;;;;5073009;28;20463;-54
2023/05/03 08:44:49;;;;;;;19.90;18.70;;;14.30;30.70;;;;;;5073497;28;20444;-55
2023/05/03 08:47:15;;;;;;;21.33;19.97;;;14.30;30.00;;;;;;5091492;28;20182;-55
2023/05/03 08:49:42;;;;;;;20.53;19.23;;;14.30;29.90;;;;;;5084176;28;20434;-55
2023/05/03 08:52:12;;;;;;;18.83;17.70;;;14.30;29.70;;;;;;5072708;28;20569;-56
2023/05/03 08:54:38;;;;;;;19.63;18.43;;;14.50;30.00;;;;;;5091549;28;20424;-56
2023/05/03 08:57:07;;;;;;;19.20;18.07;;;14.70;29.20;;;;;;5072987;28;20564;-56
2023/05/03 08:59:33;;;;;;;18.67;17.67;;;14.70;29.30;;;;;;5073252;28;20186;-56
2023/05/03 09:01:59;;;;;;;18.40;17.30;;;14.70;29.30;;;;;;5072575;28;20417;-55
2023/05/03 09:04:35;;;;;;;17.83;16.67;;;14.80;29.10;;;;;;5073117;28;20186;-55
2023/05/03 09:07:08;;;;;;;18.30;17.20;;;14.80;29.10;;;;;;5072910;28;20189;-56
2023/05/03 09:09:34;;;;;;;19.07;17.80;;;14.90;28.50;;;;;;5073003;28;20464;-55
2023/05/03 09:12:00;;;;;;;18.43;17.40;;;15.00;28.60;;;;;;5072482;28;20425;-55
2023/05/03 09:14:26;;;;;;;18.20;17.20;;;15.00;28.50;;;;;;5073163;28;20435;-55
2023/05/03 09:16:51;;;;;;;16.83;15.93;;;15.10;28.50;;;;;;5072829;28;20213;-56
2023/05/03 09:19:17;;;;;;;17.00;16.03;;;15.20;28.50;;;;;;5091161;28;20216;-55
2023/05/03 09:21:45;;;;;;;16.43;15.33;;;15.30;27.90;;;;;;5072654;28;20176;-56
2023/05/03 09:24:13;;;;;;;17.77;16.60;;;15.30;27.40;;;;;;5072818;28;20663;-55
2023/05/03 09:26:39;;;;;;;16.77;15.77;;;15.40;27.60;;;;;;5072999;28;20947;-55
2023/05/03 09:29:05;;;;;;;16.33;15.40;;;15.50;27.50;;;;;;5072888;28;20425;-55
2023/05/03 09:31:32;;;;;;;17.07;15.97;;;15.60;27.50;;;;;;5072521;28;20493;-55
2023/05/03 09:33:58;;;;;;;17.43;16.43;;;15.70;27.20;;;;;;5072765;28;20175;-55
2023/05/03 09:36:24;;;;;;;17.03;16.10;;;15.70;27.10;;;;;;5072788;28;20459;-56
2023/05/03 09:38:51;;;;;;;18.53;17.30;;;15.70;27.10;;;;;;5093048;28;20175;-55
2023/05/03 09:41:30;;;;;;;18.47;17.23;;;15.70;27.10;;;;;;5076347;28;20181;-56
2023/05/03 09:44:01;;;;;;;18.37;17.20;;;15.70;27.10;;;;;;5076907;28;20423;-56
2023/05/03 09:46:29;;;;;;;17.43;16.53;;;15.80;27.10;;;;;;5076895;28;20432;-55
2023/05/03 09:48:56;;;;;;;18.40;17.30;;;16.00;27.30;;;;;;5076370;28;20423;-55
2023/05/03 09:51:22;;;;;;;17.33;16.30;;;16.20;26.90;;;;;;5076211;28;20434;-54
2023/05/03 09:53:48;;;;;;;16.63;15.63;;;16.20;26.50;;;;;;5076745;28;20420;-56
2023/05/03 09:56:15;;;;;;;17.50;16.40;;;16.30;26.30;;;;;;5076329;28;20514;-55
2023/05/03 09:58:42;;;;;;;17.60;16.30;;;16.40;26.40;;;;;;5076563;28;20412;-55
2023/05/03 10:01:08;;;;;;;19.27;18.07;;;16.50;26.00;;;;;;5075883;28;20845;-55
2023/05/03 10:03:40;;;;;;;16.27;15.17;;;16.60;26.00;;;;;;5076222;28;20856;-55
2023/05/03 10:06:31;;;;;;;16.10;15.10;;;16.70;25.70;;;;;;5076327;28;20469;-56
2023/05/03 10:09:23;;;;;;;13.17;12.40;;;16.90;25.60;;;;;;5075846;28;20429;-56
2023/05/03 10:11:53;;;;;;;16.63;15.43;;;16.80;24.70;;;;;;5075414;28;20482;-57
2023/05/03 10:14:20;;;;;;;15.53;14.50;;;16.80;25.20;;;;;;5076089;28;20920;-56
2023/05/03 10:16:49;;;;;;;15.00;14.00;;;16.80;24.60;;;;;;5076196;28;20985;-55
2023/05/03 10:19:22;;;;;;;14.47;13.53;;;16.90;24.10;;;;;;5076069;28;20408;-56
2023/05/03 10:22:06;;;;;;;13.63;12.77;;;16.90;24.40;;;;;;5075708;28;20428;-56
2023/05/03 10:24:34;;;;;;;14.03;13.13;;;17.10;23.70;;;;;;5076195;28;20419;-54
2023/05/03 10:27:00;;;;;;;14.20;13.37;;;17.20;23.30;;;;;;5075874;28;20423;-56
2023/05/03 10:29:36;;;;;;;15.83;14.77;;;17.30;23.20;;;;;;5076037;28;20412;-56
2023/05/03 10:32:03;;;;;;;14.07;13.17;;;17.30;22.60;;;;;;5075243;28;20443;-56
2023/05/03 10:34:38;;;;;;;14.47;13.67;;;17.40;22.60;;;;;;5094157;28;20408;-56
2023/05/03 10:37:14;;;;;;;13.70;12.80;;;17.50;22.30;;;;;;5075513;28;20854;-56
2023/05/03 10:39:51;;;;;;;12.53;11.70;;;17.60;22.50;;;;;;5075811;28;20430;-56
2023/05/03 10:42:22;;;;;;;13.23;12.23;;;17.60;21.90;;;;;;5075192;28;20479;-53
2023/05/03 10:44:52;;;;;;;12.70;11.90;;;17.70;21.70;;;;;;5075608;28;20435;-55
2023/05/03 10:47:23;;;;;;;13.30;12.60;;;17.70;20.80;;;;;;5075578;28;20416;-54
2023/05/03 10:50:13;;;;;;;13.83;12.77;;;17.70;21.50;;;;;;5074959;28;20828;-54
2023/05/03 10:52:38;;;;;;;13.90;13.00;;;17.90;20.90;;;;;;5074606;28;20443;-56
2023/05/03 10:55:19;;;;;;;13.47;12.27;;;18.00;20.40;;;;;;5074916;28;20779;-55
2023/05/03 10:57:47;;;;;;;13.13;12.30;;;18.10;20.40;;;;;;5075456;28;20252;-55
2023/05/03 11:00:26;;;;;;;13.20;12.60;;;18.20;19.90;;;;;;5075060;28;20419;-53
2023/05/03 11:03:02;;;;;;;12.30;11.60;;;18.20;19.50;;;;;;5074912;28;20834;-55
2023/05/03 11:05:30;;;;;;;13.90;13.10;;;18.20;19.40;;;;;;5075322;28;20515;-55
2023/05/03 11:08:19;;;;;;;12.63;11.90;;;18.30;18.90;;;;;;5075193;28;20429;-52
2023/05/03 11:10:48;;;;;;;13.07;12.37;;;18.20;19.30;;;;;;5076175;28;20993;-56
2023/05/03 11:13:15;;;;;;;12.40;11.80;;;18.20;19.60;;;;;;5075466;28;20844;-56
2023/05/03 11:15:41;;;;;;;13.37;12.47;;;18.20;19.70;;;;;;5076087;28;20465;-55
2023/05/03 11:18:08;;;;;;;13.20;12.50;;;18.20;19.90;;;;;;5075985;28;20412;-55
2023/05/03 11:20:35;;;;;;;12.83;12.10;;;18.20;19.30;;;;;;5075950;28;20412;-53
2023/05/03 11:23:02;;;;;;;11.80;11.20;;;18.10;19.00;;;;;;5075307;28;20412;-55
2023/05/03 11:25:28;;;;;;;13.47;12.50;;;18.10;18.80;;;;;;5076029;28;20413;-54
2023/05/03 11:27:54;;;;;;;14.13;13.33;;;18.10;18.30;;;;;;5075915;28;20507;-53
2023/05/03 11:30:20;;;;;;;17.07;15.83;;;18.00;19.40;;;;;;5075881;28;20907;-55
2023/05/03 11:32:46;;;;;;;12.63;11.73;;;18.00;19.20;;;;;;5075302;28;20677;-56
2023/05/03 11:35:14;;;;;;;13.30;12.40;;;18.00;19.10;;;;;;5075623;28;20223;-55
2023/05/03 11:37:41;;;;;;;12.27;11.47;;;18.10;19.30;;;;;;5075686;28;20427;-53
2023/05/03 11:40:15;;;;;;;12.10;11.40;;;18.20;18.90;;;;;;5075512;28;20503;-54
2023/05/03 11:43:00;;;;;;;12.50;11.80;;;18.10;18.80;;;;;;5074890;28;20472;-55
2023/05/03 11:45:31;;;;;;;12.20;11.33;;;18.00;19.30;;;;;;5075160;28;20890;-55
2023/05/03 11:47:58;;;;;;;11.50;10.90;;;18.00;18.10;;;;;;5075705;28;20444;-53
2023/05/03 11:50:44;;;;;;;12.47;11.53;;;18.00;17.00;;;;;;5075422;28;20447;-53
2023/05/03 11:53:11;;;;;;;12.63;11.93;;;18.00;17.00;;;;;;5074923;28;20913;-55
2023/05/03 11:55:48;;;;;;;12.07;11.17;;;18.00;16.70;;;;;;5075530;28;20464;-56
2023/05/03 11:58:19;;;;;;;12.87;12.07;;;18.10;16.60;;;;;;5075630;28;20405;-55
2023/05/03 12:00:53;;;;;;;13.07;12.47;;;18.20;18.40;;;;;;5075450;28;20427;-55
2023/05/03 12:03:25;;;;;;;13.20;12.50;;;18.10;18.20;;;;;;5073936;28;20454;-55
2023/05/03 12:05:54;;;;;;;12.17;11.57;;;18.10;17.60;;;;;;5075379;28;20429;-55
2023/05/03 12:08:27;;;;;;;12.40;11.70;;;18.00;18.40;;;;;;5070951;28;20426;-54
2023/05/03 12:10:53;;;;;;;13.07;12.37;;;18.00;18.50;;;;;;5071415;28;20448;-55
2023/05/03 12:13:54;;;;;;;13.53;12.83;;;18.00;18.60;;;;;;5070878;28;20430;-55
2023/05/03 12:16:21;;;;;;;13.17;12.30;;;18.00;18.60;;;;;;5054737;28;20484;-55
2023/05/03 12:18:48;;;;;;;12.20;11.53;;;18.00;18.40;;;;;;5071202;28;20448;-55
2023/05/03 12:21:14;;;;;;;11.73;11.03;;;18.00;18.60;;;;;;5070879;28;20514;-60
2023/05/03 12:23:40;;;;;;;11.50;10.80;;;17.90;18.00;;;;;;5070912;28;20512;-61
2023/05/03 12:26:06;;;;;;;11.10;10.60;;;18.00;18.10;;;;;;5071119;28;20921;-60
2023/05/03 12:28:32;;;;;;;11.43;10.63;;;18.00;17.70;;;;;;5073031;28;20904;-60
2023/05/03 12:30:59;;;;;;;10.63;10.10;;;18.00;18.00;;;;;;5070947;28;20513;-60